Time,TemperatureF,DewpointF,PressureIn,WindDirection,WindDirectionDegrees,WindSpeedMPH,WindSpeedGustMPH,Humidity,HourlyPrecipIn,Conditions,Clouds,dailyrainin,SoftwareType,DateUTC
2013-02-17 00:00:00,24.6,12.3,30.10,SSE,159,0.0,10.0,59,0.00,CLR,,0.00,WeatherDisplay:10.37,2013-02-17 05:00:00,
2013-02-17 01:00:00,23.5,10.5,30.11,East,100,3.0,12.0,57,0.00,CLR,,0.00,WeatherDisplay:10.37,2013-02-17 06:00:00,
2013-02-17 02:00:00,23.2,9.0,30.13,NNE,32,0.0,6.0,54,0.00,SCT,,0.00,WeatherDisplay:10.37,2013-02-17 07:00:00,
2013-02-17 03:00:00,22.6,10.8,30.13,NE,47,0.0,9.0,60,0.00,SCT,,0.00,WeatherDisplay:10.37,2013-02-17 08:00:00,
2013-02-17 04:00:00,22.4,11.3,30.13,ENE,73,0.0,12.0,62,0.00,CLR,,0.00,WeatherDisplay:10.37,2013-02-17 09:00:00,
2013-02-17 05:00:00,21.8,10.0,30.14,NNW,328,1.0,12.0,60,0.00,CLR,,0.00,WeatherDisplay:10.37,2013-02-17 10:00:00,
2013-02-17 06:00:00,21.1,11.5,30.16,SSW,211,0.0,4.0,66,0.00,CLR,,0.00,WeatherDisplay:10.37,2013-02-17 11:00:00,
2013-02-17 07:00:00,20.5,11.3,30.18,SSE,148,1.0,6.0,67,0.00,CLR,,0.00,WeatherDisplay:10.37,2013-02-17 12:00:00,
2013-02-17 08:00:00,22.9,11.4,30.20,ENE,71,0.0,8.0,61,0.00,CLR,,0.00,WeatherDisplay:10.37,2013-02-17 13:00:00,
2013-02-17 09:00:00,26.4,12.0,30.22,ENE,64,7.0,10.0,54,0.00,CLR,,0.00,WeatherDisplay:10.37,2013-02-17 14:00:00,
2013-02-17 10:00:00,29.0,12.2,30.23,NE,45,7.0,15.0,49,0.00,CLR,,0.00,WeatherDisplay:10.37,2013-02-17 15:00:00,
2013-02-17 15:00:00,37.3,13.3,30.21,SE,138,5.0,20.0,37,0.00,CLR,,0.00,WeatherDisplay:10.37,2013-02-17 20:00:00,
2013-02-17 16:00:00,38.2,16.0,30.20,SSE,155,6.0,12.0,40,0.00,SCT,,0.00,WeatherDisplay:10.37,2013-02-17 21:00:00,
2013-02-17 17:00:00,36.5,15.0,30.20,SSE,166,0.0,15.0,41,0.00,CLR,,0.00,WeatherDisplay:10.37,2013-02-17 22:00:00,
2013-02-17 18:00:00,33.0,16.8,30.22,South,172,0.0,7.0,51,0.00,CLR,,0.00,WeatherDisplay:10.37,2013-02-17 23:00:00,
2013-02-17 19:00:00,28.5,19.3,30.24,South,172,0.0,2.0,68,0.00,CLR,,0.00,WeatherDisplay:10.37,2013-02-18 00:00:00,
2013-02-17 20:00:00,26.6,20.7,30.25,South,172,0.0,1.0,78,0.00,CLR,,0.00,WeatherDisplay:10.37,2013-02-18 01:00:00,
2013-02-17 21:00:00,25.5,19.8,30.27,South,172,0.0,1.0,79,0.00,CLR,,0.00,WeatherDisplay:10.37,2013-02-18 02:00:00,
2013-02-17 22:00:00,24.6,20.2,30.28,South,172,0.0,0.0,83,0.00,CLR,,0.00,WeatherDisplay:10.37,2013-02-18 03:00:00,
2013-02-17 23:00:00,23.6,19.5,30.28,South,172,0.0,0.0,84,0.00,CLR,,0.00,WeatherDisplay:10.37,2013-02-18 04:00:00,